Address 0x6a42888a9f9ae5b319baa60df5144f870fdfd7a5 4

Txn Hash Method
Block
From
To
Value [Txn Fee]
0x975fbf9364f953b6047338060ea7fbf0c997d8dbdfd39e4cbdf29672362da1cfApprove159969982022-06-13 23:25:1316 days 4 hrs ago0x6a42888a9f9ae5b319baa60df5144f870fdfd7a5OUT 0xd039c9079ca7f2a87d632a9c0d7cea0137bacfb50 AVAX0.001233628 26.5
0x83c91177c554fb90e7b0549199fdaf42440ed883dc59cc29efc59810b8bd4a72Transfer159776792022-06-13 12:58:4716 days 14 hrs ago0x6a42888a9f9ae5b319baa60df5144f870fdfd7a5OUT USD Coin0 AVAX0.001740236151 26.55389635
0x8a196e097ebd5e1c461f58caa6e029caa7950ea68366497306c9d2ee51f672a1Transfer159776442022-06-13 12:57:4216 days 14 hrs ago0x6a42888a9f9ae5b319baa60df5144f870fdfd7a5OUT USD Coin0 AVAX0.001103354 26.5
0x84ee4c4f142d701bc6907f0a3652bf1b908d68a1c4d05d6ce1cc74d059232211Swap Exact Token...159775752022-06-13 12:55:2616 days 15 hrs ago0x6a42888a9f9ae5b319baa60df5144f870fdfd7a5OUT Trader Joe: Router0 AVAX0.022549592 26.5
0x41be2b6c55549078832e42f13a92df7cb6f46b4770f2506e0703b772eea664a6Approve159775552022-06-13 12:54:4116 days 15 hrs ago0x6a42888a9f9ae5b319baa60df5144f870fdfd7a5OUT 0x09ad4a1746ab9ecc96bb67d919de3c6b54cc879f0 AVAX0.001304012 26.5
0x1787c4be6db6c5c3e3e184191ffbba7170b121648ff1fba2cd4dfdbfbf33b2aeSwap Exact Token...159767652022-06-13 12:28:5016 days 15 hrs ago0x6a42888a9f9ae5b319baa60df5144f870fdfd7a5OUT Trader Joe: Router0 AVAX0.008318721 26.5
0x31c7825b759c01962b6ee4118c59b5557e612f9eadd2016b1af6f3bfe3f82ddcApprove159767402022-06-13 12:28:0316 days 15 hrs ago0x6a42888a9f9ae5b319baa60df5144f870fdfd7a5OUT 0x542fa0b261503333b90fe60c78f2beed16b7b7fd0 AVAX0.00127321134 26.94
0x6404fba77cbb3f62614515b455a22b608b9e4d74b031ed6fef0de14706b8a705Swap Exact Token...159766482022-06-13 12:24:5916 days 15 hrs ago0x6a42888a9f9ae5b319baa60df5144f870fdfd7a5OUT Trader Joe: Router0 AVAX0.0048143345 26.5
0x1b7025472a3fb83ef8c23927708cbaaf7d8ff039aaedcafbd805abae2b8a05aeApprove159766222022-06-13 12:24:0716 days 15 hrs ago0x6a42888a9f9ae5b319baa60df5144f870fdfd7a5OUT 0x90842eb834cfd2a1db0b1512b254a18e4d3962150 AVAX0.001251807 26.5
0x12a5bbec4ec5c29be29e821855093b81235dc4cb5be17589eb7eb44a2813b42eTransfer153983512022-05-31 2:27:3030 days 1 hr ago0x6a42888a9f9ae5b319baa60df5144f870fdfd7a5OUT USD Coin0 AVAX0.001283554 26.5
0xc13bf5a3f0b693279606a109622c24a9f141cbe06ebb9d03718f9ed24fe255afSwap Exact Token...153982802022-05-31 2:25:0930 days 1 hr ago0x6a42888a9f9ae5b319baa60df5144f870fdfd7a5OUT Trader Joe: Router0 AVAX0.0053340525 26.5
0x092577bcf031030ffd92ec9d34b3355dd26fa06513298b1054a687d6bf5c4baaApprove153982662022-05-31 2:24:4230 days 1 hr ago0x6a42888a9f9ae5b319baa60df5144f870fdfd7a5OUT Avalanche Bridge: USDT.e0 AVAX0.001251224 26.5
0x07d14bfed08251b18ed1e403dd6b77e485c3183c3a6688d4b1aebfe0eae8240cTransfer129613362022-04-04 0:08:1987 days 3 hrs ago0x6a42888a9f9ae5b319baa60df5144f870fdfd7a5OUT 0x6e84a6216ea6dacc71ee8e6b0a5b7322eebc0fdd0 AVAX0.003231984481 93.19179036
0xac9072795f23f7292467b21430abc2efbfbdd4ee6b3b88e451eec883b3fe923bWithdraw129613132022-04-04 0:07:3087 days 3 hrs ago0x6a42888a9f9ae5b319baa60df5144f870fdfd7a5OUT 0x1a731b2299e22fbac282e7094eda41046343cb510 AVAX0.010423215301 94.556215488
0x13d5e98476e8e15848af7c1ce5ff445ff9a6a960d6d8e6a35e67b45b82ede857Deposit129610102022-04-03 23:56:5687 days 3 hrs ago0x6a42888a9f9ae5b319baa60df5144f870fdfd7a5OUT 0x1a731b2299e22fbac282e7094eda41046343cb510 AVAX0.011226613494 72.973535013
0x87f686afbb57529b613aee7b6f0482ad512a870766cad62a266973eb14e611a2Transfer129609942022-04-03 23:56:2387 days 3 hrs ago0x19a1dc8c13d4c9b42de20c61f14e276b0ace6369 IN 0x6a42888a9f9ae5b319baa60df5144f870fdfd7a50.1 AVAX0.001539256159 73.297912362
0xd574d1961e8169771431b8309a2eacfb43f376934278262eeb331467cf6160d7Approve129607942022-04-03 23:49:3987 days 4 hrs ago0x6a42888a9f9ae5b319baa60df5144f870fdfd7a5OUT 0x6e84a6216ea6dacc71ee8e6b0a5b7322eebc0fdd0 AVAX0.003113250797 66.941552822
0x6ef9b3c1251dcbb283af6c798e28e5f86ca1c7aa7376b240653007d55496a990Leave129607792022-04-03 23:49:0987 days 4 hrs ago0x6a42888a9f9ae5b319baa60df5144f870fdfd7a5OUT 0x57319d41f71e81f3c65f2a47ca4e001ebafd4f330 AVAX0.003751603007 70.081502794
0xb335b57b1069e46377665a058be0c82853acca3133148e07903093c0c51dfaeeWithdraw129607672022-04-03 23:48:4587 days 4 hrs ago0x6a42888a9f9ae5b319baa60df5144f870fdfd7a5OUT Trader Joe: xJOE Farm0 AVAX0.010990294764 68.591171166
0x4d888be04468ca4942ebcb2527785577644d1182eeea6234546ae3dc06bbb34fDeposit129605672022-04-03 23:41:4887 days 4 hrs ago0x6a42888a9f9ae5b319baa60df5144f870fdfd7a5OUT Trader Joe: xJOE Farm0 AVAX0.011834454149 81.547750182
0x67056f0ce26d77eced945928dc408d41388129c7b686538b3b6e6f8c88b60c71Transfer103165872022-01-31 22:18:21149 days 5 hrs ago0x6a42888a9f9ae5b319baa60df5144f870fdfd7a5OUT0x19a1dc8c13d4c9b42de20c61f14e276b0ace63690.1 AVAX0.00118963103 56.649096677
0x9d7fd6afb82b78ec0e49c5880b346e195fe88f5b66454961a1f18b94b8d99fd7Transfer74965912021-11-27 13:26:30214 days 14 hrs ago0x6a42888a9f9ae5b319baa60df5144f870fdfd7a5OUT Wonderland: Time Token0 AVAX0.001290125
0x0e4343d527d3fd19f52ffb736f4fe2855f061098fe31a3ca73cff0d6a387b27aSwap Exact Token...74965492021-11-27 13:25:10214 days 14 hrs ago0x6a42888a9f9ae5b319baa60df5144f870fdfd7a5OUT Trader Joe: Router0 AVAX0.00299042525
0xaff412a57e40218d7f13ef32f38db80a3b5dd0b3d3c5dc2f6b48696a27081a31Swap Exact Token...74670852021-11-26 20:48:08215 days 7 hrs ago0x6a42888a9f9ae5b319baa60df5144f870fdfd7a5OUT Trader Joe: Router0 AVAX0.00518211838153.473515447
0x74388b1465703352fc0f8100ab5d3e266bcce874764e17da9dea651622ff90eeSwap Exact Token...74669932021-11-26 20:45:02215 days 7 hrs ago0x6a42888a9f9ae5b319baa60df5144f870fdfd7a5OUT Trader Joe: Router0 AVAX0.00775194170662.22960349
[ Download CSV Export 
Latest 7 internal transactions
Parent Txn Hash Block From To Value
0x6404fba77cbb3f62614515b455a22b608b9e4d74b031ed6fef0de14706b8a705159766482022-06-13 12:24:5916 days 15 hrs ago Trader Joe: Router0x6a42888a9f9ae5b319baa60df5144f870fdfd7a50.346253706215114748 AVAX
0x3d24a0cc2bf8a3914f56fa083b94b62a981136f0ce71e8cb804d8a1c7afdb20372319372021-11-21 9:39:18220 days 18 hrs ago 0x2274491950b2d6d79b7e69b683b482282ba148850x6a42888a9f9ae5b319baa60df5144f870fdfd7a50.017294458219128817 AVAX
0xf1cc10a58bc422713e06ca274c3bc8e208b7efa35dfec7f92ab47bde0adc536d53098592021-10-07 1:02:54266 days 2 hrs ago YetiSwap: Router0x6a42888a9f9ae5b319baa60df5144f870fdfd7a50.030732189889294278 AVAX
0x8a1d1ebd51777a4432beb8e07623d573a8336f183c3616ae8674c572acbf1a2453046252021-10-06 22:06:58266 days 5 hrs ago Pangolin: Router0x6a42888a9f9ae5b319baa60df5144f870fdfd7a50.032870482380965715 AVAX
0x1b28948985383c1ee827056e8fa979c68997e87061eaff7f31783e0977da389650358272021-09-30 12:54:58272 days 15 hrs ago ParaSwap: Router0x6a42888a9f9ae5b319baa60df5144f870fdfd7a510.41512236894715065 AVAX
0xb2677539981938b4dfac7369ef2a7b3f8e72c53c7fc3f1673050a410e61cd39650346732021-09-30 12:15:05272 days 15 hrs ago 0xe1376def383d1656f5a40b6ba31f8c035bfc26aa0x6a42888a9f9ae5b319baa60df5144f870fdfd7a59.89999999992125 AVAX
0x04f5737cbd6eae8b3f77db5b050d62d6d749e6fdbb079f38425a3c6d3c02066f42001092021-09-12 3:45:59291 days 10 mins ago ParaSwap: Router0x6a42888a9f9ae5b319baa60df5144f870fdfd7a50.098473856437360473 AVAX
[ Download CSV Export 
Loading

Contract Name:
0

Compiler Version
0

Optimization Enabled:
0

Other Settings:
-NA-
Block Transaction Gas Used Reward
Age Block Fee Address BC Fee Address Voting Power Jailed Incoming
Block Uncle Number Difficulty Gas Used Reward
Loading
Make sure to use the "Vote Down" button for any spammy posts, and the "Vote Up" for interesting conversations.